Time,TemperatureF,DewpointF,PressureIn,WindDirection,WindDirectionDegrees,WindSpeedMPH,WindSpeedGustMPH,Humidity,HourlyPrecipIn,Conditions,Clouds,dailyrainin,SoftwareType,DateUTC
2013-02-26 17:59:00,43.3,38.5,26.53,WNW,297,6.3,6.3,83,0.00,CLR,,0.12,WeatherDisplay:10.37,2013-02-26 23:59:00,
2013-02-26 18:00:00,43.2,38.3,26.53,West,278,7.2,7.2,83,0.00,CLR,,0.12,WeatherDisplay:10.37,2013-02-27 00:00:00,
2013-02-26 18:01:00,43.2,38.3,26.53,WNW,296,7.6,7.6,83,0.00,CLR,,0.12,WeatherDisplay:10.37,2013-02-27 00:01:00,
2013-02-26 18:02:00,43.2,38.3,26.53,WNW,299,7.2,8.1,83,0.00,CLR,,0.12,WeatherDisplay:10.37,2013-02-27 00:02:00,
2013-02-26 18:07:00,43.2,38.3,26.53,West,272,6.7,8.7,83,0.00,CLR,,0.12,WeatherDisplay:10.37,2013-02-27 00:07:00,
2013-02-26 18:12:00,43.0,37.2,27.45,West,272,5.4,8.1,80,0.00,CLR,,0.12,WeatherDisplay:10.37,2013-02-27 00:12:00,
2013-02-26 18:17:00,43.0,36.6,27.45,West,281,9.6,12.7,78,0.00,CLR,,0.12,WeatherDisplay:10.37,2013-02-27 00:17:00,
2013-02-26 18:22:00,43.0,35.9,27.45,West,277,5.8,8.1,76,0.00,CLR,,0.12,WeatherDisplay:10.37,2013-02-27 00:22:00,
2013-02-26 18:27:00,42.8,35.4,29.78,NW,316,8.0,12.7,75,0.00,CLR,,0.12,WeatherDisplay:10.37,2013-02-27 00:27:00,
2013-02-26 18:32:00,42.8,35.4,29.78,WSW,256,6.7,9.2,75,0.00,CLR,,0.12,WeatherDisplay:10.37,2013-02-27 00:32:00,
2013-02-26 18:37:00,42.8,35.4,29.78,WNW,285,6.7,9.2,75,0.00,CLR,,0.12,WeatherDisplay:10.37,2013-02-27 00:37:00,
2013-02-26 18:42:00,42.8,35.4,26.65,WNW,283,5.4,5.8,75,0.00,CLR,,0.12,WeatherDisplay:10.37,2013-02-27 00:42:00,
2013-02-26 18:47:00,42.6,34.9,26.65,West,266,8.0,10.4,74,0.00,CLR,,0.12,WeatherDisplay:10.37,2013-02-27 00:47:00,
2013-02-26 18:52:00,42.6,34.9,26.65,North,349,6.7,10.5,74,0.00,CLR,,0.12,WeatherDisplay:10.37,2013-02-27 00:52:00,
2013-02-26 18:57:00,42.6,34.6,27.45,NW,309,6.3,8.1,73,0.00,CLR,,0.12,WeatherDisplay:10.37,2013-02-27 00:57:00,
2013-02-26 19:02:00,42.4,34.4,27.45,WNW,299,7.6,8.1,73,0.00,CLR,,0.12,WeatherDisplay:10.37,2013-02-27 01:02:00,
2013-02-26 19:07:00,42.4,34.4,27.45,WNW,302,11.4,23.0,73,0.00,CLR,,0.12,WeatherDisplay:10.37,2013-02-27 01:07:00,
2013-02-26 19:12:00,42.4,34.4,26.42,NW,310,7.6,11.5,73,0.00,CLR,,0.12,WeatherDisplay:10.37,2013-02-27 01:12:00,
2013-02-26 19:17:00,42.3,34.2,26.42,WNW,301,4.9,6.3,73,0.00,CLR,,0.12,WeatherDisplay:10.37,2013-02-27 01:17:00,
2013-02-26 19:22:00,42.3,34.6,26.42,NNW,332,8.7,10.4,74,0.00,CLR,,0.12,WeatherDisplay:10.37,2013-02-27 01:22:00,
2013-02-26 19:27:00,42.3,34.2,29.20,WNW,285,7.2,8.1,73,0.00,CLR,,0.12,WeatherDisplay:10.37,2013-02-27 01:27:00,
2013-02-26 19:32:00,42.1,34.0,29.20,WNW,287,7.2,12.7,73,0.00,CLR,,0.12,WeatherDisplay:10.37,2013-02-27 01:32:00,
2013-02-26 19:37:00,41.9,33.9,29.20,West,274,8.0,9.2,73,0.00,CLR,,0.12,WeatherDisplay:10.37,2013-02-27 01:37:00,
2013-02-26 19:42:00,41.7,33.0,29.20,West,264,8.3,10.4,71,0.00,CLR,,0.12,WeatherDisplay:10.37,2013-02-27 01:42:00,
2013-02-26 19:47:00,41.7,33.0,29.20,NW,324,6.7,11.5,71,0.00,CLR,,0.12,WeatherDisplay:10.37,2013-02-27 01:47:00,
2013-02-26 19:52:00,41.5,32.8,29.20,WNW,285,6.7,10.4,71,0.00,CLR,,0.12,WeatherDisplay:10.37,2013-02-27 01:52:00,
2013-02-26 19:57:00,41.4,32.7,29.49,WNW,291,5.8,8.1,71,0.00,CLR,,0.12,WeatherDisplay:10.37,2013-02-27 01:57:00,
2013-02-26 20:02:00,41.2,32.8,29.49,NW,317,9.2,15.0,72,0.00,CLR,,0.12,WeatherDisplay:10.37,2013-02-27 02:02:00,
2013-02-26 20:07:00,41.2,32.8,29.20,WNW,295,7.6,9.2,72,0.00,CLR,,0.12,WeatherDisplay:10.37,2013-02-27 02:07:00,
2013-02-26 20:12:00,41.0,32.7,29.20,NNW,342,6.3,8.1,72,0.00,CLR,,0.12,WeatherDisplay:10.37,2013-02-27 02:12:00,
2013-02-26 20:17:00,41.0,32.7,29.20,NNW,330,6.3,9.2,72,0.00,CLR,,0.12,WeatherDisplay:10.37,2013-02-27 02:17:00,
2013-02-26 20:22:00,40.8,32.8,29.20,NNW,337,5.4,9.2,73,0.00,CLR,,0.12,WeatherDisplay:10.37,2013-02-27 02:22:00,
2013-02-26 20:27:00,40.8,32.8,30.22,WSW,257,5.8,8.1,73,0.00,CLR,,0.12,WeatherDisplay:10.37,2013-02-27 02:27:00,
2013-02-26 20:32:00,40.6,32.7,30.22,West,266,8.3,9.2,73,0.00,CLR,,0.12,WeatherDisplay:10.37,2013-02-27 02:32:00,
2013-02-26 20:37:00,40.6,32.7,30.22,West,267,5.4,6.9,73,0.00,CLR,,0.12,WeatherDisplay:10.37,2013-02-27 02:37:00,
2013-02-26 20:42:00,40.5,32.5,29.20,WNW,297,4.9,10.4,73,0.00,CLR,,0.12,WeatherDisplay:10.37,2013-02-27 02:42:00,
2013-02-26 20:47:00,40.5,32.5,29.20,NNW,330,8.3,11.5,73,0.00,CLR,,0.12,WeatherDisplay:10.37,2013-02-27 02:47:00,
2013-02-26 20:52:00,40.5,32.5,29.20,NW,307,6.3,9.2,73,0.00,CLR,,0.12,WeatherDisplay:10.37,2013-02-27 02:52:00,
2013-02-26 20:57:00,40.5,32.5,29.20,WNW,290,7.2,10.4,73,0.00,CLR,,0.12,WeatherDisplay:10.37,2013-02-27 02:57:00,
2013-02-26 21:02:00,40.3,32.3,29.20,NW,324,3.6,4.6,73,0.00,CLR,,0.12,WeatherDisplay:10.37,2013-02-27 03:02:00,
2013-02-26 21:07:00,40.3,32.3,29.20,WNW,298,7.2,10.4,73,0.00,CLR,,0.12,WeatherDisplay:10.37,2013-02-27 03:07:00,
2013-02-26 21:12:00,40.3,32.3,29.20,West,271,8.0,11.5,73,0.00,CLR,,0.12,WeatherDisplay:10.37,2013-02-27 03:12:00,
2013-02-26 21:17:00,40.3,32.3,29.20,WNW,289,7.2,9.2,73,0.00,CLR,,0.12,WeatherDisplay:10.37,2013-02-27 03:17:00,
2013-02-26 21:22:00,40.1,32.1,29.20,WNW,301,8.3,8.3,73,0.00,CLR,,0.12,WeatherDisplay:10.37,2013-02-27 03:22:00,
2013-02-26 21:27:00,40.1,31.8,29.20,WNW,285,5.4,9.2,72,0.00,CLR,,0.12,WeatherDisplay:10.37,2013-02-27 03:27:00,
2013-02-26 21:32:00,39.9,31.6,29.20,NNW,331,4.5,9.2,72,0.00,CLR,,0.12,WeatherDisplay:10.37,2013-02-27 03:32:00,
2013-02-26 21:37:00,39.9,31.6,29.20,West,276,4.5,8.1,72,0.00,CLR,,0.12,WeatherDisplay:10.37,2013-02-27 03:37:00,
2013-02-26 21:42:00,39.9,32.0,29.20,West,275,6.3,8.1,73,0.00,CLR,,0.12,WeatherDisplay:10.37,2013-02-27 03:42:00,
2013-02-26 21:47:00,39.9,32.0,29.20,WNW,303,4.9,6.9,73,0.00,CLR,,0.12,WeatherDisplay:10.37,2013-02-27 03:47:00,
2013-02-26 21:52:00,39.9,31.6,29.20,WNW,297,6.3,11.5,72,0.00,CLR,,0.12,WeatherDisplay:10.37,2013-02-27 03:52:00,
2013-02-26 21:57:00,39.9,31.6,29.20,WNW,289,6.3,8.1,72,0.00,CLR,,0.12,WeatherDisplay:10.37,2013-02-27 03:57:00,
2013-02-26 22:02:00,39.7,31.1,29.20,NW,318,6.3,6.3,71,0.00,CLR,,0.12,WeatherDisplay:10.37,2013-02-27 04:02:00,
2013-02-26 22:07:00,39.7,31.1,29.20,West,281,6.3,8.1,71,0.00,CLR,,0.12,WeatherDisplay:10.37,2013-02-27 04:07:00,
2013-02-26 22:12:00,39.7,31.1,29.20,WNW,297,5.8,11.5,71,0.00,CLR,,0.12,WeatherDisplay:10.37,2013-02-27 04:12:00,
2013-02-26 22:17:00,39.7,31.4,29.20,NW,321,6.7,11.5,72,0.00,CLR,,0.12,WeatherDisplay:10.37,2013-02-27 04:17:00,
2013-02-26 22:22:00,39.7,31.4,29.20,WNW,293,4.9,9.2,72,0.00,CLR,,0.12,WeatherDisplay:10.37,2013-02-27 04:22:00,
2013-02-26 22:27:00,39.6,31.3,29.20,NW,313,4.0,5.8,72,0.00,CLR,,0.12,WeatherDisplay:10.37,2013-02-27 04:27:00,
2013-02-26 22:32:00,39.6,31.3,29.20,West,279,4.5,5.8,72,0.00,CLR,,0.12,WeatherDisplay:10.37,2013-02-27 04:32:00,
2013-02-26 22:37:00,39.6,31.3,29.20,NW,309,6.7,8.1,72,0.00,CLR,,0.12,WeatherDisplay:10.37,2013-02-27 04:37:00,
2013-02-26 22:42:00,39.6,31.3,29.20,West,263,6.7,10.4,72,0.00,CLR,,0.12,WeatherDisplay:10.37,2013-02-27 04:42:00,
2013-02-26 22:47:00,39.6,30.9,29.20,WNW,291,4.5,5.8,71,0.00,CLR,,0.12,WeatherDisplay:10.37,2013-02-27 04:47:00,
2013-02-26 22:52:00,39.4,30.8,29.20,West,270,8.3,12.7,71,0.00,CLR,,0.12,WeatherDisplay:10.37,2013-02-27 04:52:00,
2013-02-26 22:57:00,39.4,30.4,29.20,WNW,287,5.4,8.1,70,0.00,CLR,,0.12,WeatherDisplay:10.37,2013-02-27 04:57:00,
2013-02-26 23:00:00,39.4,30.4,29.20,WSW,251,6.7,8.1,70,0.00,CLR,,0.12,WeatherDisplay:10.37,2013-02-27 05:00:00,
2013-02-26 23:01:00,39.4,30.4,29.20,West,275,6.7,8.1,70,0.00,CLR,,0.12,WeatherDisplay:10.37,2013-02-27 05:01:00,
2013-02-26 23:02:00,39.4,30.4,29.20,WNW,294,7.6,8.1,70,0.00,CLR,,0.12,WeatherDisplay:10.37,2013-02-27 05:02:00,
2013-02-26 23:07:00,39.2,30.2,29.20,NW,304,5.8,8.1,70,0.00,CLR,,0.12,WeatherDisplay:10.37,2013-02-27 05:07:00,
2013-02-26 23:12:00,39.2,29.9,29.20,NNW,345,8.0,10.4,69,0.00,CLR,,0.12,WeatherDisplay:10.37,2013-02-27 05:12:00,
2013-02-26 23:13:00,39.2,29.9,29.20,WNW,290,6.7,9.2,69,0.00,CLR,,0.12,WeatherDisplay:10.37,2013-02-27 05:13:00,
2013-02-26 23:18:00,39.0,29.7,29.20,WNW,287,8.3,10.4,69,0.00,CLR,,0.12,WeatherDisplay:10.37,2013-02-27 05:18:00,
2013-02-26 23:23:00,38.8,29.2,29.20,West,280,6.7,6.7,68,0.00,CLR,,0.12,WeatherDisplay:10.37,2013-02-27 05:23:00,
2013-02-26 23:29:00,38.8,29.2,29.20,West,272,6.7,8.1,68,0.00,CLR,,0.12,WeatherDisplay:10.37,2013-02-27 05:29:00,
2013-02-26 23:34:00,38.7,29.0,29.20,NW,318,5.8,9.2,68,0.00,CLR,,0.12,WeatherDisplay:10.37,2013-02-27 05:34:00,
2013-02-26 23:39:00,38.7,29.0,29.20,NNW,345,6.7,9.2,68,0.00,CLR,,0.12,WeatherDisplay:10.37,2013-02-27 05:39:00,
2013-02-26 23:44:00,38.5,28.8,29.20,West,268,7.2,9.2,68,0.00,CLR,,0.12,WeatherDisplay:10.37,2013-02-27 05:44:00,
2013-02-26 23:49:00,38.5,28.8,29.20,WNW,290,4.5,6.9,68,0.00,CLR,,0.12,WeatherDisplay:10.37,2013-02-27 05:49:00,
2013-02-26 23:54:00,38.5,28.8,29.20,WNW,287,7.2,10.4,68,0.00,CLR,,0.12,WeatherDisplay:10.37,2013-02-27 05:54:00,
2013-02-26 23:59:00,38.5,28.8,29.20,WSW,257,5.8,10.4,68,0.00,CLR,,0.12,WeatherDisplay:10.37,2013-02-27 05:59:00,